sensor_id;sensor_type;location;lat;lon;timestamp;temperature;humidity
8591;DHT22;4333;48.322;14.340;2022-09-27T00:00:16;10.90;99.90
8591;DHT22;4333;48.322;14.340;2022-09-27T00:02:45;11.00;99.90
8591;DHT22;4333;48.322;14.340;2022-09-27T00:05:19;11.00;99.90
8591;DHT22;4333;48.322;14.340;2022-09-27T00:07:47;11.00;99.90
8591;DHT22;4333;48.322;14.340;2022-09-27T00:10:17;11.00;99.90
8591;DHT22;4333;48.322;14.340;2022-09-27T00:12:49;10.90;99.90
8591;DHT22;4333;48.322;14.340;2022-09-27T00:15:19;10.90;99.90
8591;DHT22;4333;48.322;14.340;2022-09-27T00:17:48;10.80;99.90
8591;DHT22;4333;48.322;14.340;2022-09-27T00:20:20;10.80;99.90
8591;DHT22;4333;48.322;14.340;2022-09-27T00:22:49;10.80;99.90
8591;DHT22;4333;48.322;14.340;2022-09-27T00:25:18;10.80;99.90
8591;DHT22;4333;48.322;14.340;2022-09-27T00:27:48;10.70;99.90
8591;DHT22;4333;48.322;14.340;2022-09-27T00:30:19;10.60;99.90
8591;DHT22;4333;48.322;14.340;2022-09-27T00:32:47;10.70;99.90
8591;DHT22;4333;48.322;14.340;2022-09-27T00:35:18;10.70;99.90
8591;DHT22;4333;48.322;14.340;2022-09-27T00:37:49;10.80;99.90
8591;DHT22;4333;48.322;14.340;2022-09-27T00:40:17;10.70;99.90
8591;DHT22;4333;48.322;14.340;2022-09-27T00:42:49;10.60;99.90
8591;DHT22;4333;48.322;14.340;2022-09-27T00:45:18;10.60;99.90
8591;DHT22;4333;48.322;14.340;2022-09-27T00:47:58;10.70;99.90
8591;DHT22;4333;48.322;14.340;2022-09-27T00:50:38;10.80;99.90
8591;DHT22;4333;48.322;14.340;2022-09-27T00:53:32;10.80;99.90
8591;DHT22;4333;48.322;14.340;2022-09-27T00:56:05;10.80;99.90
8591;DHT22;4333;48.322;14.340;2022-09-27T00:58:40;10.80;99.90
8591;DHT22;4333;48.322;14.340;2022-09-27T01:01:09;10.70;99.90
8591;DHT22;4333;48.322;14.340;2022-09-27T01:04:14;10.70;99.90
8591;DHT22;4333;48.322;14.340;2022-09-27T01:06:43;10.70;99.90
8591;DHT22;4333;48.322;14.340;2022-09-27T01:09:12;10.70;99.90
8591;DHT22;4333;48.322;14.340;2022-09-27T01:11:47;10.80;99.90
8591;DHT22;4333;48.322;14.340;2022-09-27T01:31:53;10.70;99.90
8591;DHT22;4333;48.322;14.340;2022-09-27T01:40:05;10.80;99.90
8591;DHT22;4333;48.322;14.340;2022-09-27T01:42:46;10.80;99.90
8591;DHT22;4333;48.322;14.340;2022-09-27T01:45:32;10.80;99.90
8591;DHT22;4333;48.322;14.340;2022-09-27T01:48:14;10.80;99.90
8591;DHT22;4333;48.322;14.340;2022-09-27T01:51:08;10.80;99.90
8591;DHT22;4333;48.322;14.340;2022-09-27T01:53:47;10.90;99.90
8591;DHT22;4333;48.322;14.340;2022-09-27T01:56:34;10.80;99.90
8591;DHT22;4333;48.322;14.340;2022-09-27T02:01:43;10.80;99.90
8591;DHT22;4333;48.322;14.340;2022-09-27T02:04:16;10.90;99.90
8591;DHT22;4333;48.322;14.340;2022-09-27T02:06:49;10.90;99.90
8591;DHT22;4333;48.322;14.340;2022-09-27T02:09:24;10.80;99.90
8591;DHT22;4333;48.322;14.340;2022-09-27T02:12:01;10.90;99.90
8591;DHT22;4333;48.322;14.340;2022-09-27T02:14:39;10.90;99.90
8591;DHT22;4333;48.322;14.340;2022-09-27T02:22:43;10.90;99.90
8591;DHT22;4333;48.322;14.340;2022-09-27T02:31:17;10.80;99.90
8591;DHT22;4333;48.322;14.340;2022-09-27T02:33:53;10.80;99.90
8591;DHT22;4333;48.322;14.340;2022-09-27T02:36:23;10.80;99.90
8591;DHT22;4333;48.322;14.340;2022-09-27T02:38:52;10.80;99.90
8591;DHT22;4333;48.322;14.340;2022-09-27T02:41:23;10.80;99.90
8591;DHT22;4333;48.322;14.340;2022-09-27T02:44:03;10.90;99.90
8591;DHT22;4333;48.322;14.340;2022-09-27T02:52:27;10.90;99.90
8591;DHT22;4333;48.322;14.340;2022-09-27T02:55:10;10.90;99.90
8591;DHT22;4333;48.322;14.340;2022-09-27T03:00:35;10.90;99.90
8591;DHT22;4333;48.322;14.340;2022-09-27T03:05:58;10.90;99.90
8591;DHT22;4333;48.322;14.340;2022-09-27T03:08:28;10.90;99.90
8591;DHT22;4333;48.322;14.340;2022-09-27T03:10:58;10.90;99.90
8591;DHT22;4333;48.322;14.340;2022-09-27T03:13:27;10.90;99.90
8591;DHT22;4333;48.322;14.340;2022-09-27T03:15:55;10.90;99.90
8591;DHT22;4333;48.322;14.340;2022-09-27T03:18:23;10.90;99.90
8591;DHT22;4333;48.322;14.340;2022-09-27T03:20:55;10.90;99.90
8591;DHT22;4333;48.322;14.340;2022-09-27T03:23:23;10.90;99.90
8591;DHT22;4333;48.322;14.340;2022-09-27T03:25:51;10.90;99.90
8591;DHT22;4333;48.322;14.340;2022-09-27T03:28:27;10.90;99.90
8591;DHT22;4333;48.322;14.340;2022-09-27T03:30:59;10.90;99.90
8591;DHT22;4333;48.322;14.340;2022-09-27T03:33:28;10.90;99.90
8591;DHT22;4333;48.322;14.340;2022-09-27T03:35:58;10.90;99.90
8591;DHT22;4333;48.322;14.340;2022-09-27T03:38:26;10.90;99.90
8591;DHT22;4333;48.322;14.340;2022-09-27T03:40:55;10.90;99.90
8591;DHT22;4333;48.322;14.340;2022-09-27T03:43:24;10.90;99.90
8591;DHT22;4333;48.322;14.340;2022-09-27T03:45:56;10.90;99.90
8591;DHT22;4333;48.322;14.340;2022-09-27T03:48:25;10.90;99.90
8591;DHT22;4333;48.322;14.340;2022-09-27T03:50:54;10.90;99.90
8591;DHT22;4333;48.322;14.340;2022-09-27T03:53:23;10.90;99.90
8591;DHT22;4333;48.322;14.340;2022-09-27T03:55:51;10.90;99.90
8591;DHT22;4333;48.322;14.340;2022-09-27T03:58:19;10.90;99.90
8591;DHT22;4333;48.322;14.340;2022-09-27T04:00:49;10.90;99.90
8591;DHT22;4333;48.322;14.340;2022-09-27T04:03:17;10.90;99.90
8591;DHT22;4333;48.322;14.340;2022-09-27T04:05:46;10.90;99.90
8591;DHT22;4333;48.322;14.340;2022-09-27T04:08:15;10.90;99.90
8591;DHT22;4333;48.322;14.340;2022-09-27T04:10:44;10.90;99.90
8591;DHT22;4333;48.322;14.340;2022-09-27T04:13:13;10.80;99.90
8591;DHT22;4333;48.322;14.340;2022-09-27T04:15:42;10.90;99.90
8591;DHT22;4333;48.322;14.340;2022-09-27T04:18:12;10.80;99.90
8591;DHT22;4333;48.322;14.340;2022-09-27T04:20:40;10.90;99.90
8591;DHT22;4333;48.322;14.340;2022-09-27T04:23:09;10.90;99.90
8591;DHT22;4333;48.322;14.340;2022-09-27T04:25:37;10.80;99.90
8591;DHT22;4333;48.322;14.340;2022-09-27T04:28:04;10.90;99.90
8591;DHT22;4333;48.322;14.340;2022-09-27T04:30:37;10.90;99.90
8591;DHT22;4333;48.322;14.340;2022-09-27T04:33:07;10.90;99.90
8591;DHT22;4333;48.322;14.340;2022-09-27T04:35:35;10.90;99.90
8591;DHT22;4333;48.322;14.340;2022-09-27T04:38:20;10.90;99.90
8591;DHT22;4333;48.322;14.340;2022-09-27T04:40:51;10.90;99.90
8591;DHT22;4333;48.322;14.340;2022-09-27T04:43:20;10.90;99.90
8591;DHT22;4333;48.322;14.340;2022-09-27T04:45:47;11.00;99.90
8591;DHT22;4333;48.322;14.340;2022-09-27T04:48:15;11.00;99.90
8591;DHT22;4333;48.322;14.340;2022-09-27T04:50:45;11.00;99.90
8591;DHT22;4333;48.322;14.340;2022-09-27T04:53:16;11.00;99.90
8591;DHT22;4333;48.322;14.340;2022-09-27T04:55:45;11.10;99.90
8591;DHT22;4333;48.322;14.340;2022-09-27T04:58:15;11.00;99.90
8591;DHT22;4333;48.322;14.340;2022-09-27T05:00:43;11.00;99.90
8591;DHT22;4333;48.322;14.340;2022-09-27T05:03:12;10.90;99.90
8591;DHT22;4333;48.322;14.340;2022-09-27T05:05:40;10.80;99.90
8591;DHT22;4333;48.322;14.340;2022-09-27T05:08:07;10.90;99.90
8591;DHT22;4333;48.322;14.340;2022-09-27T05:10:36;10.90;99.90
8591;DHT22;4333;48.322;14.340;2022-09-27T05:13:04;10.90;99.90
8591;DHT22;4333;48.322;14.340;2022-09-27T05:15:32;10.90;99.90
8591;DHT22;4333;48.322;14.340;2022-09-27T05:18:02;11.00;99.90
8591;DHT22;4333;48.322;14.340;2022-09-27T05:20:30;10.90;99.90
8591;DHT22;4333;48.322;14.340;2022-09-27T05:23:00;11.00;99.90
8591;DHT22;4333;48.322;14.340;2022-09-27T05:25:32;10.90;99.90
8591;DHT22;4333;48.322;14.340;2022-09-27T05:28:02;10.90;99.90
8591;DHT22;4333;48.322;14.340;2022-09-27T05:30:31;10.80;99.90
8591;DHT22;4333;48.322;14.340;2022-09-27T05:33:00;10.80;99.90
8591;DHT22;4333;48.322;14.340;2022-09-27T05:35:29;10.90;99.90
8591;DHT22;4333;48.322;14.340;2022-09-27T05:38:03;10.90;99.90
8591;DHT22;4333;48.322;14.340;2022-09-27T05:40:32;11.00;99.90
8591;DHT22;4333;48.322;14.340;2022-09-27T05:43:02;10.90;99.90
8591;DHT22;4333;48.322;14.340;2022-09-27T05:45:30;11.00;99.90
8591;DHT22;4333;48.322;14.340;2022-09-27T05:47:58;10.90;99.90
8591;DHT22;4333;48.322;14.340;2022-09-27T05:50:27;10.80;99.90
8591;DHT22;4333;48.322;14.340;2022-09-27T05:52:56;10.80;99.90
8591;DHT22;4333;48.322;14.340;2022-09-27T05:55:27;10.70;99.90
8591;DHT22;4333;48.322;14.340;2022-09-27T05:58:00;10.70;99.90
8591;DHT22;4333;48.322;14.340;2022-09-27T06:00:34;10.70;99.90
8591;DHT22;4333;48.322;14.340;2022-09-27T06:03:08;10.70;99.90
8591;DHT22;4333;48.322;14.340;2022-09-27T06:05:39;10.70;99.90
8591;DHT22;4333;48.322;14.340;2022-09-27T06:08:10;10.70;99.90
8591;DHT22;4333;48.322;14.340;2022-09-27T06:10:41;10.70;99.90
8591;DHT22;4333;48.322;14.340;2022-09-27T06:13:14;10.80;99.90
8591;DHT22;4333;48.322;14.340;2022-09-27T06:15:44;10.70;99.90
8591;DHT22;4333;48.322;14.340;2022-09-27T06:18:15;10.70;99.90
8591;DHT22;4333;48.322;14.340;2022-09-27T06:20:43;10.70;99.90
8591;DHT22;4333;48.322;14.340;2022-09-27T06:23:13;10.70;99.90
8591;DHT22;4333;48.322;14.340;2022-09-27T06:25:41;10.70;99.90
8591;DHT22;4333;48.322;14.340;2022-09-27T06:28:08;10.70;99.90
8591;DHT22;4333;48.322;14.340;2022-09-27T06:30:40;10.60;99.90
8591;DHT22;4333;48.322;14.340;2022-09-27T06:33:11;10.60;99.90
8591;DHT22;4333;48.322;14.340;2022-09-27T06:35:41;10.60;99.90
8591;DHT22;4333;48.322;14.340;2022-09-27T06:38:11;10.60;99.90
8591;DHT22;4333;48.322;14.340;2022-09-27T06:40:38;10.70;99.90
8591;DHT22;4333;48.322;14.340;2022-09-27T06:43:07;10.60;99.90
8591;DHT22;4333;48.322;14.340;2022-09-27T06:45:38;10.60;99.90
8591;DHT22;4333;48.322;14.340;2022-09-27T06:48:06;10.60;99.90
8591;DHT22;4333;48.322;14.340;2022-09-27T06:50:38;10.60;99.90
8591;DHT22;4333;48.322;14.340;2022-09-27T06:53:15;10.60;99.90
8591;DHT22;4333;48.322;14.340;2022-09-27T06:55:43;10.60;99.90
8591;DHT22;4333;48.322;14.340;2022-09-27T06:58:10;10.60;99.90
8591;DHT22;4333;48.322;14.340;2022-09-27T07:00:56;10.70;99.90
8591;DHT22;4333;48.322;14.340;2022-09-27T07:03:41;10.70;99.90
8591;DHT22;4333;48.322;14.340;2022-09-27T07:06:21;10.70;99.90
8591;DHT22;4333;48.322;14.340;2022-09-27T07:08:54;10.70;99.90
8591;DHT22;4333;48.322;14.340;2022-09-27T07:11:21;10.80;99.90
8591;DHT22;4333;48.322;14.340;2022-09-27T07:13:51;10.90;99.90
8591;DHT22;4333;48.322;14.340;2022-09-27T07:16:20;11.00;99.90
8591;DHT22;4333;48.322;14.340;2022-09-27T07:18:47;11.00;99.90
8591;DHT22;4333;48.322;14.340;2022-09-27T07:21:16;11.00;99.90
8591;DHT22;4333;48.322;14.340;2022-09-27T07:23:42;11.00;99.90
8591;DHT22;4333;48.322;14.340;2022-09-27T07:26:09;11.00;99.90
8591;DHT22;4333;48.322;14.340;2022-09-27T07:28:36;11.00;99.90
8591;DHT22;4333;48.322;14.340;2022-09-27T07:31:03;11.10;99.90
8591;DHT22;4333;48.322;14.340;2022-09-27T07:33:30;11.10;99.90
8591;DHT22;4333;48.322;14.340;2022-09-27T07:35:56;11.10;99.90
8591;DHT22;4333;48.322;14.340;2022-09-27T07:38:22;11.10;99.90
8591;DHT22;4333;48.322;14.340;2022-09-27T07:40:53;11.20;99.90
8591;DHT22;4333;48.322;14.340;2022-09-27T07:43:23;11.20;99.90
8591;DHT22;4333;48.322;14.340;2022-09-27T07:45:50;11.40;99.90
8591;DHT22;4333;48.322;14.340;2022-09-27T07:48:17;11.40;99.90
8591;DHT22;4333;48.322;14.340;2022-09-27T07:50:43;11.50;99.90
8591;DHT22;4333;48.322;14.340;2022-09-27T07:53:10;11.60;99.90
8591;DHT22;4333;48.322;14.340;2022-09-27T07:55:40;11.60;99.90
8591;DHT22;4333;48.322;14.340;2022-09-27T07:58:09;11.70;99.90
8591;DHT22;4333;48.322;14.340;2022-09-27T08:00:37;11.70;99.90
8591;DHT22;4333;48.322;14.340;2022-09-27T08:03:11;11.80;99.90
8591;DHT22;4333;48.322;14.340;2022-09-27T08:05:42;11.80;99.90
8591;DHT22;4333;48.322;14.340;2022-09-27T08:08:12;11.80;99.90
8591;DHT22;4333;48.322;14.340;2022-09-27T08:10:39;11.80;99.90
8591;DHT22;4333;48.322;14.340;2022-09-27T08:13:11;11.80;99.90
8591;DHT22;4333;48.322;14.340;2022-09-27T08:15:39;11.80;99.90
8591;DHT22;4333;48.322;14.340;2022-09-27T08:18:07;11.80;99.90
8591;DHT22;4333;48.322;14.340;2022-09-27T08:20:54;11.80;99.90
8591;DHT22;4333;48.322;14.340;2022-09-27T08:23:34;11.70;99.90
8591;DHT22;4333;48.322;14.340;2022-09-27T08:26:06;11.60;99.90
8591;DHT22;4333;48.322;14.340;2022-09-27T08:28:36;11.50;99.90
8591;DHT22;4333;48.322;14.340;2022-09-27T08:31:05;11.50;99.90
8591;DHT22;4333;48.322;14.340;2022-09-27T08:33:32;11.50;99.90
8591;DHT22;4333;48.322;14.340;2022-09-27T08:36:00;11.50;99.90
8591;DHT22;4333;48.322;14.340;2022-09-27T08:38:29;11.50;99.90
8591;DHT22;4333;48.322;14.340;2022-09-27T08:40:58;11.40;99.90
8591;DHT22;4333;48.322;14.340;2022-09-27T08:43:42;11.40;99.90
8591;DHT22;4333;48.322;14.340;2022-09-27T08:46:22;11.40;99.90
8591;DHT22;4333;48.322;14.340;2022-09-27T08:48:55;11.40;99.90
8591;DHT22;4333;48.322;14.340;2022-09-27T08:51:27;11.40;99.90
8591;DHT22;4333;48.322;14.340;2022-09-27T08:54:07;11.50;99.90
8591;DHT22;4333;48.322;14.340;2022-09-27T08:56:36;11.60;99.90
8591;DHT22;4333;48.322;14.340;2022-09-27T08:59:36;11.70;99.90
8591;DHT22;4333;48.322;14.340;2022-09-27T09:02:08;11.80;99.90
8591;DHT22;4333;48.322;14.340;2022-09-27T09:04:42;11.80;99.90
8591;DHT22;4333;48.322;14.340;2022-09-27T09:13:37;11.90;99.90
8591;DHT22;4333;48.322;14.340;2022-09-27T09:16:11;11.80;99.90
8591;DHT22;4333;48.322;14.340;2022-09-27T09:24:51;11.70;99.90
8591;DHT22;4333;48.322;14.340;2022-09-27T09:27:33;11.70;99.90
8591;DHT22;4333;48.322;14.340;2022-09-27T09:33:51;11.80;99.90
8591;DHT22;4333;48.322;14.340;2022-09-27T09:38:48;12.20;99.90
8591;DHT22;4333;48.322;14.340;2022-09-27T09:41:27;12.30;99.90
8591;DHT22;4333;48.322;14.340;2022-09-27T09:46:42;12.10;99.90
8591;DHT22;4333;48.322;14.340;2022-09-27T09:49:50;12.10;99.90
8591;DHT22;4333;48.322;14.340;2022-09-27T09:52:22;12.10;99.90
8591;DHT22;4333;48.322;14.340;2022-09-27T09:55:22;12.30;99.90
8591;DHT22;4333;48.322;14.340;2022-09-27T09:58:18;12.40;99.90
8591;DHT22;4333;48.322;14.340;2022-09-27T10:00:47;12.50;99.90
8591;DHT22;4333;48.322;14.340;2022-09-27T10:03:17;12.50;99.90
8591;DHT22;4333;48.322;14.340;2022-09-27T10:05:47;12.50;99.90
8591;DHT22;4333;48.322;14.340;2022-09-27T10:08:31;12.50;99.90
8591;DHT22;4333;48.322;14.340;2022-09-27T10:10:57;12.60;99.90
8591;DHT22;4333;48.322;14.340;2022-09-27T10:13:23;12.80;99.90
8591;DHT22;4333;48.322;14.340;2022-09-27T10:16:10;12.90;99.90
8591;DHT22;4333;48.322;14.340;2022-09-27T10:18:42;13.00;99.90
8591;DHT22;4333;48.322;14.340;2022-09-27T10:21:31;13.50;99.90
8591;DHT22;4333;48.322;14.340;2022-09-27T10:24:06;13.80;99.90
8591;DHT22;4333;48.322;14.340;2022-09-27T10:26:39;13.90;99.90
8591;DHT22;4333;48.322;14.340;2022-09-27T10:31:45;13.80;99.90
8591;DHT22;4333;48.322;14.340;2022-09-27T10:34:36;14.00;99.90
8591;DHT22;4333;48.322;14.340;2022-09-27T10:37:15;14.10;99.90
8591;DHT22;4333;48.322;14.340;2022-09-27T10:39:48;14.20;99.90
8591;DHT22;4333;48.322;14.340;2022-09-27T10:42:31;14.00;99.90
8591;DHT22;4333;48.322;14.340;2022-09-27T10:45:31;14.10;99.90
8591;DHT22;4333;48.322;14.340;2022-09-27T10:48:01;14.30;99.90
8591;DHT22;4333;48.322;14.340;2022-09-27T10:50:30;14.30;99.90
8591;DHT22;4333;48.322;14.340;2022-09-27T10:53:10;14.40;99.90
8591;DHT22;4333;48.322;14.340;2022-09-27T10:55:38;14.50;99.90
8591;DHT22;4333;48.322;14.340;2022-09-27T10:58:06;14.70;99.90
8591;DHT22;4333;48.322;14.340;2022-09-27T11:00:34;15.10;99.90
8591;DHT22;4333;48.322;14.340;2022-09-27T11:03:15;15.20;99.90
8591;DHT22;4333;48.322;14.340;2022-09-27T11:05:42;15.00;99.90
8591;DHT22;4333;48.322;14.340;2022-09-27T11:10:58;14.90;99.90
8591;DHT22;4333;48.322;14.340;2022-09-27T11:13:25;14.80;99.90
8591;DHT22;4333;48.322;14.340;2022-09-27T11:30:13;14.80;99.90
8591;DHT22;4333;48.322;14.340;2022-09-27T11:46:33;13.50;99.90
8591;DHT22;4333;48.322;14.340;2022-09-27T11:55:10;13.60;99.90
8591;DHT22;4333;48.322;14.340;2022-09-27T12:00:54;13.70;99.90
8591;DHT22;4333;48.322;14.340;2022-09-27T12:06:58;14.00;99.90
8591;DHT22;4333;48.322;14.340;2022-09-27T12:09:36;14.20;99.90
8591;DHT22;4333;48.322;14.340;2022-09-27T12:12:17;14.60;99.90
8591;DHT22;4333;48.322;14.340;2022-09-27T12:17:19;14.80;99.90
8591;DHT22;4333;48.322;14.340;2022-09-27T12:19:51;14.70;99.90
8591;DHT22;4333;48.322;14.340;2022-09-27T12:22:28;14.80;99.90
8591;DHT22;4333;48.322;14.340;2022-09-27T12:24:56;14.90;99.90
8591;DHT22;4333;48.322;14.340;2022-09-27T12:27:45;15.10;99.90
8591;DHT22;4333;48.322;14.340;2022-09-27T12:30:13;14.70;99.90
8591;DHT22;4333;48.322;14.340;2022-09-27T12:35:41;14.40;99.90
8591;DHT22;4333;48.322;14.340;2022-09-27T12:40:52;14.30;99.90
8591;DHT22;4333;48.322;14.340;2022-09-27T12:43:21;14.30;99.90
8591;DHT22;4333;48.322;14.340;2022-09-27T12:46:29;14.30;99.90
8591;DHT22;4333;48.322;14.340;2022-09-27T12:52:08;13.80;99.90
8591;DHT22;4333;48.322;14.340;2022-09-27T13:01:00;13.80;99.90
8591;DHT22;4333;48.322;14.340;2022-09-27T13:14:27;14.50;99.90
8591;DHT22;4333;48.322;14.340;2022-09-27T13:16:56;14.50;99.90
8591;DHT22;4333;48.322;14.340;2022-09-27T13:24:54;14.10;99.90
8591;DHT22;4333;48.322;14.340;2022-09-27T13:35:39;14.70;99.90
8591;DHT22;4333;48.322;14.340;2022-09-27T13:38:21;14.60;99.90
8591;DHT22;4333;48.322;14.340;2022-09-27T13:40:49;14.60;99.90
8591;DHT22;4333;48.322;14.340;2022-09-27T13:46:19;14.40;99.90
8591;DHT22;4333;48.322;14.340;2022-09-27T13:59:07;14.50;99.90
8591;DHT22;4333;48.322;14.340;2022-09-27T14:01:49;14.50;99.90
8591;DHT22;4333;48.322;14.340;2022-09-27T14:04:32;14.60;99.90
8591;DHT22;4333;48.322;14.340;2022-09-27T14:07:04;14.30;99.90
8591;DHT22;4333;48.322;14.340;2022-09-27T14:09:36;14.00;99.90
8591;DHT22;4333;48.322;14.340;2022-09-27T14:12:21;14.10;99.90
8591;DHT22;4333;48.322;14.340;2022-09-27T14:14:50;14.00;99.90
8591;DHT22;4333;48.322;14.340;2022-09-27T14:17:18;14.10;99.90
8591;DHT22;4333;48.322;14.340;2022-09-27T14:19:47;14.10;99.90
8591;DHT22;4333;48.322;14.340;2022-09-27T14:22:17;14.20;99.90
8591;DHT22;4333;48.322;14.340;2022-09-27T14:24:50;14.30;99.90
8591;DHT22;4333;48.322;14.340;2022-09-27T14:27:29;14.30;99.90
8591;DHT22;4333;48.322;14.340;2022-09-27T14:30:16;14.20;99.90
8591;DHT22;4333;48.322;14.340;2022-09-27T14:32:47;14.00;99.90
8591;DHT22;4333;48.322;14.340;2022-09-27T14:35:24;13.20;99.90
8591;DHT22;4333;48.322;14.340;2022-09-27T14:38:14;12.90;99.90
8591;DHT22;4333;48.322;14.340;2022-09-27T14:40:53;12.80;99.90
8591;DHT22;4333;48.322;14.340;2022-09-27T14:43:22;12.70;99.90
8591;DHT22;4333;48.322;14.340;2022-09-27T14:45:52;12.40;99.90
8591;DHT22;4333;48.322;14.340;2022-09-27T14:53:48;12.50;99.90
8591;DHT22;4333;48.322;14.340;2022-09-27T14:56:20;12.10;99.90
8591;DHT22;4333;48.322;14.340;2022-09-27T14:58:54;12.00;99.90
8591;DHT22;4333;48.322;14.340;2022-09-27T15:01:27;11.90;99.90
8591;DHT22;4333;48.322;14.340;2022-09-27T15:03:53;11.90;99.90
8591;DHT22;4333;48.322;14.340;2022-09-27T15:06:20;12.00;99.90
8591;DHT22;4333;48.322;14.340;2022-09-27T15:08:47;12.40;99.90
8591;DHT22;4333;48.322;14.340;2022-09-27T15:11:15;12.40;99.90
8591;DHT22;4333;48.322;14.340;2022-09-27T15:13:42;12.40;99.90
8591;DHT22;4333;48.322;14.340;2022-09-27T15:16:14;12.30;99.90
8591;DHT22;4333;48.322;14.340;2022-09-27T15:18:49;12.50;99.90
8591;DHT22;4333;48.322;14.340;2022-09-27T15:21:36;12.60;99.90
8591;DHT22;4333;48.322;14.340;2022-09-27T15:24:03;12.60;99.90
8591;DHT22;4333;48.322;14.340;2022-09-27T15:26:39;12.50;99.90
8591;DHT22;4333;48.322;14.340;2022-09-27T15:29:15;12.40;99.90
8591;DHT22;4333;48.322;14.340;2022-09-27T15:31:45;12.30;99.90
8591;DHT22;4333;48.322;14.340;2022-09-27T15:34:17;12.20;99.90
8591;DHT22;4333;48.322;14.340;2022-09-27T15:36:49;12.10;99.90
8591;DHT22;4333;48.322;14.340;2022-09-27T15:39:25;12.10;99.90
8591;DHT22;4333;48.322;14.340;2022-09-27T15:42:08;12.20;99.90
8591;DHT22;4333;48.322;14.340;2022-09-27T15:52:53;12.40;99.90
8591;DHT22;4333;48.322;14.340;2022-09-27T15:55:25;12.40;99.90
8591;DHT22;4333;48.322;14.340;2022-09-27T15:57:58;12.40;99.90
8591;DHT22;4333;48.322;14.340;2022-09-27T16:00:26;12.30;99.90
8591;DHT22;4333;48.322;14.340;2022-09-27T16:02:54;12.30;99.90
8591;DHT22;4333;48.322;14.340;2022-09-27T16:05:22;12.40;99.90
8591;DHT22;4333;48.322;14.340;2022-09-27T16:07:52;12.30;99.90
8591;DHT22;4333;48.322;14.340;2022-09-27T16:10:39;12.20;99.90
8591;DHT22;4333;48.322;14.340;2022-09-27T16:13:09;12.20;99.90
8591;DHT22;4333;48.322;14.340;2022-09-27T16:15:36;12.20;99.90
8591;DHT22;4333;48.322;14.340;2022-09-27T16:18:02;12.10;99.90
8591;DHT22;4333;48.322;14.340;2022-09-27T16:20:28;12.00;99.90
8591;DHT22;4333;48.322;14.340;2022-09-27T16:22:57;11.90;99.90
8591;DHT22;4333;48.322;14.340;2022-09-27T16:25:24;11.80;99.90
8591;DHT22;4333;48.322;14.340;2022-09-27T16:27:50;11.70;99.90
8591;DHT22;4333;48.322;14.340;2022-09-27T16:30:18;11.70;99.90
8591;DHT22;4333;48.322;14.340;2022-09-27T16:32:47;11.60;99.90
8591;DHT22;4333;48.322;14.340;2022-09-27T16:35:14;11.50;99.90
8591;DHT22;4333;48.322;14.340;2022-09-27T16:37:44;11.50;99.90
8591;DHT22;4333;48.322;14.340;2022-09-27T16:40:11;11.50;99.90
8591;DHT22;4333;48.322;14.340;2022-09-27T16:42:38;11.40;99.90
8591;DHT22;4333;48.322;14.340;2022-09-27T16:45:05;11.30;99.90
8591;DHT22;4333;48.322;14.340;2022-09-27T16:47:32;11.20;99.90
8591;DHT22;4333;48.322;14.340;2022-09-27T16:49:58;11.10;99.90
8591;DHT22;4333;48.322;14.340;2022-09-27T16:52:43;11.00;99.90
8591;DHT22;4333;48.322;14.340;2022-09-27T16:55:13;10.80;99.90
8591;DHT22;4333;48.322;14.340;2022-09-27T16:57:40;10.60;99.90
8591;DHT22;4333;48.322;14.340;2022-09-27T17:00:06;10.60;99.90
8591;DHT22;4333;48.322;14.340;2022-09-27T17:02:34;10.50;99.90
8591;DHT22;4333;48.322;14.340;2022-09-27T17:05:00;10.40;99.90
8591;DHT22;4333;48.322;14.340;2022-09-27T17:07:26;10.20;99.90
8591;DHT22;4333;48.322;14.340;2022-09-27T17:09:55;10.10;99.90
8591;DHT22;4333;48.322;14.340;2022-09-27T17:12:24;9.90;99.90
8591;DHT22;4333;48.322;14.340;2022-09-27T17:14:50;9.80;99.90
8591;DHT22;4333;48.322;14.340;2022-09-27T17:17:16;9.80;99.90
8591;DHT22;4333;48.322;14.340;2022-09-27T17:19:42;9.80;99.90
8591;DHT22;4333;48.322;14.340;2022-09-27T17:22:09;9.80;99.90
8591;DHT22;4333;48.322;14.340;2022-09-27T17:24:35;9.70;99.90
8591;DHT22;4333;48.322;14.340;2022-09-27T17:27:04;9.70;99.90
8591;DHT22;4333;48.322;14.340;2022-09-27T17:29:29;9.70;99.90
8591;DHT22;4333;48.322;14.340;2022-09-27T17:31:58;9.60;99.90
8591;DHT22;4333;48.322;14.340;2022-09-27T17:34:25;9.50;99.90
8591;DHT22;4333;48.322;14.340;2022-09-27T17:36:52;9.30;99.90
8591;DHT22;4333;48.322;14.340;2022-09-27T17:39:22;9.20;99.90
8591;DHT22;4333;48.322;14.340;2022-09-27T17:41:48;9.10;99.90
8591;DHT22;4333;48.322;14.340;2022-09-27T17:44:15;9.10;99.90
8591;DHT22;4333;48.322;14.340;2022-09-27T17:46:44;9.10;99.90
8591;DHT22;4333;48.322;14.340;2022-09-27T17:49:11;9.00;99.90
8591;DHT22;4333;48.322;14.340;2022-09-27T17:51:56;9.10;99.90
8591;DHT22;4333;48.322;14.340;2022-09-27T17:54:23;9.00;99.90
8591;DHT22;4333;48.322;14.340;2022-09-27T17:56:53;9.00;99.90
8591;DHT22;4333;48.322;14.340;2022-09-27T17:59:23;9.00;99.90
8591;DHT22;4333;48.322;14.340;2022-09-27T18:01:49;9.00;99.90
8591;DHT22;4333;48.322;14.340;2022-09-27T18:04:17;9.00;99.90
8591;DHT22;4333;48.322;14.340;2022-09-27T18:06:45;9.00;99.90
8591;DHT22;4333;48.322;14.340;2022-09-27T18:09:15;9.00;99.90
8591;DHT22;4333;48.322;14.340;2022-09-27T18:11:41;9.00;99.90
8591;DHT22;4333;48.322;14.340;2022-09-27T18:14:09;9.00;99.90
8591;DHT22;4333;48.322;14.340;2022-09-27T18:16:39;9.00;99.90
8591;DHT22;4333;48.322;14.340;2022-09-27T18:19:10;9.00;99.90
8591;DHT22;4333;48.322;14.340;2022-09-27T18:21:38;8.90;99.90
8591;DHT22;4333;48.322;14.340;2022-09-27T18:24:04;8.80;99.90
8591;DHT22;4333;48.322;14.340;2022-09-27T18:26:31;8.70;99.90
8591;DHT22;4333;48.322;14.340;2022-09-27T18:29:08;9.10;99.90
8591;DHT22;4333;48.322;14.340;2022-09-27T18:31:37;9.30;99.90
8591;DHT22;4333;48.322;14.340;2022-09-27T18:34:08;9.20;99.90
8591;DHT22;4333;48.322;14.340;2022-09-27T18:36:38;9.20;99.90
8591;DHT22;4333;48.322;14.340;2022-09-27T18:39:14;9.20;99.90
8591;DHT22;4333;48.322;14.340;2022-09-27T18:41:44;9.20;99.90
8591;DHT22;4333;48.322;14.340;2022-09-27T18:44:14;9.10;99.90
8591;DHT22;4333;48.322;14.340;2022-09-27T18:46:43;9.00;99.90
8591;DHT22;4333;48.322;14.340;2022-09-27T18:49:12;8.90;99.90
8591;DHT22;4333;48.322;14.340;2022-09-27T18:51:41;8.90;99.90
8591;DHT22;4333;48.322;14.340;2022-09-27T18:54:16;8.90;99.90
8591;DHT22;4333;48.322;14.340;2022-09-27T18:56:47;8.90;99.90
8591;DHT22;4333;48.322;14.340;2022-09-27T18:59:16;8.90;99.90
8591;DHT22;4333;48.322;14.340;2022-09-27T19:01:46;8.90;99.90
8591;DHT22;4333;48.322;14.340;2022-09-27T19:04:22;8.90;99.90
8591;DHT22;4333;48.322;14.340;2022-09-27T19:06:56;8.90;99.90
8591;DHT22;4333;48.322;14.340;2022-09-27T19:09:25;9.00;99.90
8591;DHT22;4333;48.322;14.340;2022-09-27T19:12:01;9.10;99.90
8591;DHT22;4333;48.322;14.340;2022-09-27T19:14:30;9.00;99.90
8591;DHT22;4333;48.322;14.340;2022-09-27T19:16:59;9.00;99.90
8591;DHT22;4333;48.322;14.340;2022-09-27T19:19:27;9.00;99.90
8591;DHT22;4333;48.322;14.340;2022-09-27T19:21:58;9.00;99.90